Time;durP1;ratioP1;P1;durP2;ratioP2;P2;SDS_P1;SDS_P2;PMS_P1;PMS_P2;Temp;Humidity;BMP_temperature;BMP_pressure;BME280_temperature;BME280_humidity;BME280_pressure;Samples;Min_cycle;Max_cycle;Signal;HPM_P1;HPM_P2
2023/10/03 00:00:34;;;;;;;26.23;15.00;;;;;;;18.23;66.14;100623.91;688226;28;1254;-92
2023/10/03 00:00:53;;;;;;;22.90;14.77;;;;;;;18.25;66.04;100630.03;679844;29;1284;-93
2023/10/03 00:01:14;;;;;;;24.65;15.23;;;;;;;18.18;65.86;100626.56;682572;29;1279;-93
2023/10/03 00:01:37;;;;;;;24.88;15.48;;;;;;;18.27;66.03;100635.31;680174;29;1298;-92
2023/10/03 00:02:01;;;;;;;25.33;15.60;;;;;;;18.29;65.88;100638.81;680421;29;1464;-93
2023/10/03 00:02:22;;;;;;;23.50;15.20;;;;;;;18.24;66.03;100628.28;682189;29;1335;-92
2023/10/03 00:02:42;;;;;;;23.73;14.75;;;;;;;18.23;65.96;100621.25;683263;29;1177;-93
2023/10/03 00:03:08;;;;;;;23.47;14.90;;;;;;;18.17;65.95;100613.38;683595;28;1199;-92
2023/10/03 00:03:29;;;;;;;23.35;15.50;;;;;;;18.21;66.13;100628.31;679518;28;1234;-93
2023/10/03 00:03:52;;;;;;;24.83;15.80;;;;;;;18.18;66.00;100618.66;683233;28;1346;-93
2023/10/03 00:04:13;;;;;;;23.48;15.70;;;;;;;18.20;66.21;100616.00;679922;29;1624;-93
2023/10/03 00:04:34;;;;;;;25.13;15.73;;;;;;;18.17;65.98;100610.72;683019;28;1165;-93
2023/10/03 00:04:55;;;;;;;24.52;15.70;;;;;;;18.18;65.97;100615.13;683171;29;1302;-93
2023/10/03 00:05:22;;;;;;;25.15;14.98;;;;;;;18.22;65.95;100617.72;682858;28;1387;-92
2023/10/03 00:05:45;;;;;;;24.50;14.88;;;;;;;18.23;65.90;100623.91;690535;28;1256;-92
2023/10/03 00:06:07;;;;;;;22.67;14.95;;;;;;;18.19;65.90;100617.75;685687;28;1209;-92
2023/10/03 00:06:28;;;;;;;22.45;15.27;;;;;;;18.11;65.89;100598.41;682836;29;1266;-93
2023/10/03 00:07:42;;;;;;;21.27;14.80;;;;;;;18.21;66.02;100615.13;680417;29;1311;-94
2023/10/03 00:08:22;;;;;;;23.13;15.45;;;;;;;18.13;66.12;100606.34;685868;28;673;-93
2023/10/03 00:09:02;;;;;;;24.27;14.32;;;;;;;18.09;66.02;100597.56;687301;28;1583;-92
2023/10/03 00:09:43;;;;;;;23.13;15.05;;;;;;;18.13;66.11;100601.06;683118;29;1036;-92
2023/10/03 00:10:05;;;;;;;19.48;14.63;;;;;;;18.13;66.19;100598.41;682836;28;1369;-92
2023/10/03 00:10:28;;;;;;;18.23;13.95;;;;;;;18.07;66.01;100587.00;682908;29;1914;-92
2023/10/03 00:10:49;;;;;;;20.40;14.48;;;;;;;18.15;65.93;100607.22;680528;29;1238;-93
2023/10/03 00:11:20;;;;;;;21.63;14.77;;;;;;;18.08;65.94;100594.03;680103;29;1383;-92
2023/10/03 00:11:41;;;;;;;21.27;14.80;;;;;;;18.14;66.03;100601.06;677810;29;1324;-93
2023/10/03 00:12:02;;;;;;;21.05;15.55;;;;;;;18.13;66.04;100601.06;677749;29;1174;-91
2023/10/03 00:12:23;;;;;;;21.20;15.40;;;;;;;18.18;66.29;100607.19;675511;29;1337;-91
2023/10/03 00:12:48;;;;;;;20.45;15.13;;;;;;;18.14;66.29;100602.81;683050;29;1382;-91
2023/10/03 00:13:11;;;;;;;25.10;14.77;;;;;;;18.12;65.98;100596.66;685482;28;1287;-91
2023/10/03 00:13:31;;;;;;;26.42;14.60;;;;;;;18.11;66.10;100595.78;688347;28;1392;-91
2023/10/03 00:13:52;;;;;;;23.83;14.33;;;;;;;18.10;66.05;100599.31;683224;28;1310;-91
2023/10/03 00:14:13;;;;;;;27.13;13.68;;;;;;;18.10;65.98;100591.38;680544;29;1185;-91
2023/10/03 00:14:34;;;;;;;28.30;13.85;;;;;;;18.08;66.02;100596.66;685791;28;1256;-91
2023/10/03 00:14:55;;;;;;;25.80;13.45;;;;;;;18.12;66.16;100602.81;687946;28;1338;-91
2023/10/03 00:15:21;;;;;;;21.17;13.52;;;;;;;18.03;66.05;100582.63;682726;29;1285;-91
2023/10/03 00:15:45;;;;;;;18.23;12.88;;;;;;;18.12;66.10;100601.94;683628;28;1172;-92
2023/10/03 00:16:06;;;;;;;18.45;12.77;;;;;;;18.11;65.96;100597.53;680214;29;1274;-91
2023/10/03 00:16:28;;;;;;;20.60;13.35;;;;;;;18.04;65.93;100589.66;682008;28;1424;-92
2023/10/03 00:16:50;;;;;;;21.30;13.93;;;;;;;18.10;66.18;100596.66;683229;29;1364;-91
2023/10/03 00:17:10;;;;;;;22.23;14.38;;;;;;;18.09;66.13;100595.78;677252;29;1215;-92
2023/10/03 00:17:31;;;;;;;23.83;14.57;;;;;;;18.04;66.02;100589.66;677682;29;1165;-92
2023/10/03 00:17:53;;;;;;;25.80;14.98;;;;;;;18.11;66.11;100600.16;683162;29;1203;-91
2023/10/03 00:18:14;;;;;;;25.48;14.50;;;;;;;18.07;66.07;100589.63;685516;28;1258;-92
2023/10/03 00:18:35;;;;;;;27.45;14.02;;;;;;;18.09;66.28;100587.84;685617;28;1432;-91
2023/10/03 00:18:56;;;;;;;25.40;13.53;;;;;;;18.04;66.06;100584.38;684849;28;1217;-92
2023/10/03 00:19:16;;;;;;;24.02;13.00;;;;;;;18.08;66.07;100583.47;682673;28;1312;-92
2023/10/03 00:19:37;;;;;;;20.73;13.10;;;;;;;18.05;66.21;100586.13;682951;29;1145;-92
2023/10/03 00:19:58;;;;;;;20.60;12.57;;;;;;;17.99;66.21;100578.25;679484;29;1275;-91
2023/10/03 00:20:19;;;;;;;19.93;12.53;;;;;;;17.99;66.22;100585.28;683037;29;1166;-91
2023/10/03 00:20:41;;;;;;;18.70;12.38;;;;;;;18.05;66.08;100591.41;683933;28;1374;-91
2023/10/03 00:21:03;;;;;;;23.92;13.35;;;;;;;18.03;66.03;100582.63;683208;28;1291;-92
2023/10/03 00:21:24;;;;;;;23.00;13.23;;;;;;;18.03;66.10;100587.91;685381;28;1262;-92
2023/10/03 00:21:44;;;;;;;24.90;13.33;;;;;;;18.02;66.28;100588.78;679927;29;1246;-90
2023/10/03 00:22:05;;;;;;;20.07;12.60;;;;;;;17.98;66.14;100575.59;677489;29;1308;-92
2023/10/03 00:22:26;;;;;;;20.38;12.70;;;;;;;18.02;66.15;100583.50;679507;29;1384;-91
2023/10/03 00:22:46;;;;;;;14.73;11.80;;;;;;;18.03;66.19;100585.28;685751;28;1270;-91
2023/10/03 00:23:07;;;;;;;15.93;12.15;;;;;;;18.00;66.27;100576.50;687976;28;1216;-91
2023/10/03 00:23:29;;;;;;;16.67;12.50;;;;;;;18.02;66.02;100588.78;682672;28;1387;-91
2023/10/03 00:23:50;;;;;;;18.63;13.00;;;;;;;18.01;66.20;100589.66;680168;29;1240;-91
2023/10/03 00:24:11;;;;;;;19.13;13.00;;;;;;;17.98;66.18;100580.88;676989;29;1279;-91
2023/10/03 00:24:31;;;;;;;18.27;12.53;;;;;;;17.99;66.16;100580.88;678183;29;1247;-91
2023/10/03 00:24:52;;;;;;;18.90;12.10;;;;;;;18.04;66.32;100592.31;685650;28;1300;-92
2023/10/03 00:25:21;;;;;;;18.83;12.15;;;;;;;17.95;66.11;100572.09;688031;28;1144;-91
2023/10/03 00:25:42;;;;;;;20.75;12.57;;;;;;;18.00;66.17;100577.34;680997;28;1332;-91
2023/10/03 00:26:04;;;;;;;22.48;12.90;;;;;;;18.00;66.21;100587.91;677449;29;1153;-91
2023/10/03 00:26:25;;;;;;;22.27;13.20;;;;;;;18.02;66.20;100590.56;682956;29;1303;-92
2023/10/03 00:26:46;;;;;;;20.27;13.40;;;;;;;17.98;66.24;100584.41;683091;28;1262;-91
2023/10/03 00:27:08;;;;;;;19.35;13.20;;;;;;;17.97;66.20;100582.66;682835;29;1197;-91
2023/10/03 00:27:32;;;;;;;21.50;13.07;;;;;;;17.97;66.23;100581.78;682715;28;1303;-91
2023/10/03 00:27:59;;;;;;;19.33;12.18;;;;;;;17.97;66.30;100585.31;684023;28;1238;-91
2023/10/03 00:28:20;;;;;;;16.98;11.68;;;;;;;17.99;66.19;100586.16;680198;29;1281;-91
2023/10/03 00:28:40;;;;;;;17.50;11.82;;;;;;;17.98;66.20;100581.78;677310;29;1209;-91
2023/10/03 00:29:01;;;;;;;18.17;11.80;;;;;;;17.95;66.26;100579.16;679818;29;1237;-91
2023/10/03 00:29:26;;;;;;;17.95;11.40;;;;;;;17.97;66.19;100581.78;685314;28;1387;-91
2023/10/03 00:29:47;;;;;;;17.88;11.52;;;;;;;17.92;66.17;100579.16;687941;28;1394;-90
2023/10/03 00:30:10;;;;;;;19.58;11.88;;;;;;;17.97;66.07;100587.06;682755;29;1259;-91
2023/10/03 00:30:31;;;;;;;18.75;11.70;;;;;;;17.95;66.23;100587.94;682594;28;1978;-92
2023/10/03 00:30:52;;;;;;;19.08;12.00;;;;;;;17.89;66.23;100568.63;677764;29;1229;-90
2023/10/03 00:31:13;;;;;;;18.07;12.40;;;;;;;17.94;66.10;100587.94;682767;29;1225;-91
2023/10/03 00:31:34;;;;;;;18.05;12.70;;;;;;;17.91;66.11;100577.41;683729;28;1362;-90
2023/10/03 00:31:58;;;;;;;20.23;13.20;;;;;;;17.89;66.30;100566.00;683130;29;1093;-91
2023/10/03 00:32:19;;;;;;;20.65;12.68;;;;;;;17.92;66.35;100579.16;685400;28;1457;-91
2023/10/03 00:32:42;;;;;;;19.83;12.43;;;;;;;17.90;66.20;100578.31;680321;29;1226;-91
2023/10/03 00:33:04;;;;;;;16.65;11.52;;;;;;;17.97;66.27;100582.66;677501;29;1204;-91
2023/10/03 00:33:26;;;;;;;16.70;11.70;;;;;;;17.89;66.21;100573.91;680224;29;1315;-90
2023/10/03 00:33:47;;;;;;;19.40;12.32;;;;;;;17.95;66.10;100585.31;682988;29;1253;-91
2023/10/03 00:34:07;;;;;;;18.23;12.20;;;;;;;17.86;66.20;100566.88;684309;28;1257;-91
2023/10/03 00:34:28;;;;;;;17.30;12.05;;;;;;;17.92;66.07;100584.44;683816;28;1209;-91
2023/10/03 00:34:49;;;;;;;15.75;11.70;;;;;;;17.91;66.22;100574.78;677763;29;1329;-90
2023/10/03 00:35:11;;;;;;;15.80;12.02;;;;;;;17.91;66.10;100577.41;682865;28;1334;-91
2023/10/03 00:35:34;;;;;;;17.73;13.00;;;;;;;17.90;66.33;100571.25;684942;28;1310;-91
2023/10/03 00:35:55;;;;;;;19.50;13.45;;;;;;;17.88;66.23;100570.38;680214;29;1222;-91
2023/10/03 00:36:22;;;;;;;23.23;13.95;;;;;;;17.89;66.21;100572.13;677460;29;1270;-91
2023/10/03 00:36:42;;;;;;;25.13;14.00;;;;;;;17.89;66.24;100566.00;683141;29;1256;-90
2023/10/03 00:37:03;;;;;;;24.00;13.90;;;;;;;17.91;66.22;100567.75;682774;29;1236;-91
2023/10/03 00:37:24;;;;;;;20.92;14.00;;;;;;;17.88;66.28;100566.88;682815;29;1470;-92
2023/10/03 00:37:46;;;;;;;21.77;14.10;;;;;;;17.93;66.27;100570.34;683083;29;1281;-91
2023/10/03 00:38:10;;;;;;;19.95;13.15;;;;;;;17.88;66.37;100569.53;677807;29;1278;-91
2023/10/03 00:38:34;;;;;;;18.15;12.38;;;;;;;17.91;66.23;100572.13;682068;28;1396;-92
2023/10/03 00:38:55;;;;;;;17.85;11.75;;;;;;;17.93;66.28;100576.53;677807;29;1245;-90
2023/10/03 00:39:16;;;;;;;18.20;12.30;;;;;;;17.90;66.32;100567.75;677473;29;1262;-93
2023/10/03 00:39:36;;;;;;;19.40;12.52;;;;;;;17.91;66.23;100574.78;680382;29;1199;-92
2023/10/03 00:39:59;;;;;;;18.45;12.50;;;;;;;17.95;66.31;100580.03;675107;29;1203;-91
2023/10/03 00:40:55;;;;;;;18.25;12.02;;;;;;;17.91;66.26;100561.56;682920;29;1275;-91
2023/10/03 00:41:19;;;;;;;17.38;12.43;;;;;;;17.86;66.42;100552.78;680157;29;1253;-92
2023/10/03 00:41:40;;;;;;;18.50;12.00;;;;;;;17.95;66.29;100569.47;683050;28;1309;-92
2023/10/03 00:42:03;;;;;;;17.05;10.75;;;;;;;17.89;66.30;100560.72;682908;28;1174;-92
2023/10/03 00:42:24;;;;;;;16.50;10.93;;;;;;;17.91;66.50;100561.56;685416;28;1332;-91
2023/10/03 00:42:49;;;;;;;14.43;11.45;;;;;;;17.89;66.21;100558.06;688127;28;1255;-91
2023/10/03 00:43:12;;;;;;;14.35;11.57;;;;;;;17.94;66.26;100572.09;679804;29;1242;-91
2023/10/03 00:43:33;;;;;;;16.27;11.88;;;;;;;17.93;66.29;100559.78;680070;29;1231;-92
2023/10/03 00:43:59;;;;;;;17.50;11.93;;;;;;;17.83;66.14;100544.91;680546;29;1209;-92
2023/10/03 00:44:20;;;;;;;16.33;11.73;;;;;;;17.92;66.21;100563.31;681800;29;1402;-92
2023/10/03 00:44:41;;;;;;;15.63;11.25;;;;;;;17.91;66.21;100562.47;687383;28;1201;-91
2023/10/03 00:45:02;;;;;;;16.40;11.63;;;;;;;17.88;66.16;100558.97;685375;28;1312;-91
2023/10/03 00:45:29;;;;;;;17.67;12.48;;;;;;;17.86;66.18;100558.06;682746;29;1393;-92
2023/10/03 00:45:49;;;;;;;17.65;12.60;;;;;;;17.93;66.30;100560.69;683125;28;1331;-91
2023/10/03 00:46:10;;;;;;;15.63;11.98;;;;;;;17.84;66.13;100544.00;688256;28;1240;-92
2023/10/03 00:46:33;;;;;;;15.02;11.38;;;;;;;17.92;66.08;100558.03;682938;28;1392;-91
2023/10/03 00:46:53;;;;;;;14.85;11.55;;;;;;;17.91;66.26;100556.28;680625;29;1349;-91
2023/10/03 00:47:15;;;;;;;17.33;12.13;;;;;;;17.86;66.36;100547.50;682777;29;1384;-91
2023/10/03 00:47:35;;;;;;;21.90;12.70;;;;;;;17.88;66.21;100551.03;680217;29;1322;-92
2023/10/03 00:47:58;;;;;;;22.53;12.40;;;;;;;17.87;66.16;100549.25;680375;29;1245;-90
2023/10/03 00:48:21;;;;;;;20.42;12.10;;;;;;;17.82;66.13;100541.38;682722;28;1264;-91
2023/10/03 00:48:42;;;;;;;15.30;11.30;;;;;;;17.84;66.23;100550.19;683031;28;1452;-91
2023/10/03 00:49:10;;;;;;;15.48;11.05;;;;;;;17.89;66.24;100552.78;684850;28;1338;-91
2023/10/03 00:49:31;;;;;;;15.40;10.90;;;;;;;17.81;66.26;100532.59;682751;28;1057;-91
2023/10/03 00:49:52;;;;;;;14.07;10.80;;;;;;;17.89;66.31;100542.25;680274;29;1371;-91
2023/10/03 00:50:12;;;;;;;15.55;11.02;;;;;;;17.86;66.30;100548.41;685381;28;1158;-92
2023/10/03 00:50:34;;;;;;;17.83;11.35;;;;;;;17.82;66.35;100536.09;680089;29;1912;-91
2023/10/03 00:50:55;;;;;;;19.35;11.73;;;;;;;17.83;66.42;100537.00;680305;29;1213;-91
2023/10/03 00:51:20;;;;;;;17.05;11.90;;;;;;;17.90;66.24;100550.13;682695;28;1336;-92
2023/10/03 00:51:41;;;;;;;17.58;12.15;;;;;;;17.89;66.31;100542.25;684512;28;1252;-92
2023/10/03 00:52:05;;;;;;;17.88;12.43;;;;;;;17.81;66.35;100532.59;677579;29;1302;-91
2023/10/03 00:52:26;;;;;;;17.27;11.80;;;;;;;17.86;66.40;100537.84;685312;28;1366;-92
2023/10/03 00:53:04;;;;;;;19.65;12.00;;;;;;;17.86;66.46;100535.22;685713;28;1169;-91
2023/10/03 00:53:25;;;;;;;18.88;12.20;;;;;;;17.86;66.21;100542.22;685057;28;1357;-91
2023/10/03 00:53:47;;;;;;;16.05;11.27;;;;;;;17.89;66.39;100542.25;685756;28;1215;-91
2023/10/03 00:54:09;;;;;;;17.63;11.82;;;;;;;17.92;66.25;100542.22;680198;29;1314;-92
2023/10/03 00:54:30;;;;;;;22.98;13.02;;;;;;;17.81;66.35;100523.78;681969;29;1310;-92
2023/10/03 00:54:50;;;;;;;23.23;12.70;;;;;;;17.89;66.37;100532.53;682875;28;1200;-91
2023/10/03 00:55:13;;;;;;;22.67;12.45;;;;;;;17.87;66.38;100530.78;685354;28;1295;-91
2023/10/03 00:55:35;;;;;;;22.42;11.57;;;;;;;17.86;66.46;100531.69;680325;29;1275;-91
2023/10/03 00:55:59;;;;;;;21.85;12.15;;;;;;;17.92;66.41;100537.81;688277;28;1414;-91
2023/10/03 00:56:20;;;;;;;23.27;12.35;;;;;;;17.86;66.25;100531.69;685621;28;1430;-91
2023/10/03 00:56:43;;;;;;;23.57;12.70;;;;;;;17.87;66.36;100528.16;683153;29;1130;-91
2023/10/03 00:57:04;;;;;;;26.25;12.80;;;;;;;17.80;66.48;100512.38;685679;28;1189;-92
2023/10/03 00:57:26;;;;;;;21.55;13.00;;;;;;;17.89;66.40;100529.03;682829;29;1262;-92
2023/10/03 00:57:46;;;;;;;19.38;12.68;;;;;;;17.88;66.30;100527.28;683124;28;1397;-91
2023/10/03 00:58:32;;;;;;;15.50;11.15;;;;;;;17.92;66.32;100529.00;682756;29;1225;-91
2023/10/03 00:58:53;;;;;;;17.27;12.20;;;;;;;17.88;66.38;100530.78;688426;28;1259;-91
2023/10/03 00:59:14;;;;;;;19.13;12.50;;;;;;;17.87;66.41;100517.59;689665;28;1124;-91
2023/10/03 00:59:34;;;;;;;19.65;12.10;;;;;;;17.84;66.37;100513.22;688317;28;1486;-91
2023/10/03 00:59:58;;;;;;;16.50;10.97;;;;;;;17.92;66.63;100529.91;685141;28;1119;-91
2023/10/03 01:00:20;;;;;;;16.95;11.60;;;;;;;17.87;66.41;100517.59;685464;28;1188;-91
2023/10/03 01:00:43;;;;;;;15.70;12.13;;;;;;;17.89;66.69;100521.97;683003;29;1099;-91
2023/10/03 01:01:04;;;;;;;16.15;12.50;;;;;;;17.89;66.33;100513.19;680275;29;1277;-91
2023/10/03 01:01:28;;;;;;;14.85;12.05;;;;;;;17.89;66.39;100515.84;682706;28;1370;-93
2023/10/03 01:01:53;;;;;;;16.13;12.23;;;;;;;17.90;66.34;100517.59;677950;29;1282;-91
2023/10/03 01:02:15;;;;;;;17.70;12.70;;;;;;;17.91;66.41;100514.06;679725;29;1291;-91
2023/10/03 01:02:49;;;;;;;18.63;13.10;;;;;;;17.93;66.39;100517.56;680923;29;1223;-91
2023/10/03 01:03:36;;;;;;;18.80;12.73;;;;;;;17.90;66.15;100513.16;680299;29;1219;-91
2023/10/03 01:04:00;;;;;;;19.20;12.93;;;;;;;17.95;66.36;100523.72;682987;29;1234;-92
2023/10/03 01:04:20;;;;;;;18.65;12.38;;;;;;;17.92;66.24;100510.53;685647;28;1501;-92
2023/10/03 01:04:41;;;;;;;17.98;12.15;;;;;;;17.93;66.33;100512.28;683221;28;1228;-91
2023/10/03 01:05:03;;;;;;;15.13;11.68;;;;;;;17.91;66.20;100514.06;679822;29;1442;-91
2023/10/03 01:05:25;;;;;;;14.75;11.40;;;;;;;17.92;66.39;100511.41;680008;29;1389;-91
2023/10/03 01:05:46;;;;;;;15.30;11.35;;;;;;;17.91;66.43;100509.66;680161;29;1361;-91
2023/10/03 01:06:09;;;;;;;16.90;11.77;;;;;;;17.94;66.46;100508.75;685283;28;1312;-92
2023/10/03 01:06:30;;;;;;;19.75;12.48;;;;;;;17.96;66.53;100509.63;688166;28;1192;-92
2023/10/03 01:06:51;;;;;;;20.08;13.05;;;;;;;17.92;66.48;100510.53;685566;28;1226;-91
2023/10/03 01:07:11;;;;;;;21.53;13.13;;;;;;;17.97;66.32;100516.66;682805;29;1243;-92
2023/10/03 01:07:33;;;;;;;18.90;12.32;;;;;;;17.95;66.40;100507.88;685347;28;1442;-91
2023/10/03 01:07:54;;;;;;;17.70;11.82;;;;;;;17.99;66.20;100516.63;682717;29;1345;-91
2023/10/03 01:08:15;;;;;;;16.73;12.17;;;;;;;17.95;66.17;100515.81;685276;28;1201;-91
2023/10/03 01:08:38;;;;;;;16.83;12.85;;;;;;;17.96;66.46;100517.56;679883;29;1282;-91
2023/10/03 01:09:03;;;;;;;19.80;13.57;;;;;;;17.97;66.53;100507.84;682240;29;1214;-92
2023/10/03 01:09:27;;;;;;;22.35;13.60;;;;;;;17.95;66.28;100507.88;682871;29;1307;-91
2023/10/03 01:09:48;;;;;;;21.60;12.50;;;;;;;18.02;66.08;100516.63;683224;28;1241;-92
2023/10/03 01:10:12;;;;;;;24.02;12.20;;;;;;;17.97;66.29;100507.84;682754;29;1202;-92
2023/10/03 01:10:33;;;;;;;21.85;12.55;;;;;;;17.99;66.21;100506.97;682809;28;1911;-91
2023/10/03 01:10:55;;;;;;;23.85;12.85;;;;;;;17.99;66.29;100504.31;682126;28;1215;-93
2023/10/03 01:11:18;;;;;;;18.80;12.32;;;;;;;18.05;66.30;100517.47;682849;28;1143;-92
2023/10/03 01:11:40;;;;;;;18.27;12.65;;;;;;;18.00;66.45;100502.56;679909;29;1276;-91
2023/10/03 01:12:01;;;;;;;17.40;12.73;;;;;;;18.07;66.26;100518.34;682564;29;1373;-92
2023/10/03 01:12:22;;;;;;;16.93;12.73;;;;;;;18.01;66.19;100499.91;685246;28;1223;-91
2023/10/03 01:12:44;;;;;;;17.67;12.15;;;;;;;18.05;66.32;100506.03;682422;29;1303;-91
2023/10/03 01:13:08;;;;;;;21.98;12.18;;;;;;;18.01;66.37;100507.81;682566;28;1248;-92
2023/10/03 01:13:29;;;;;;;21.80;11.73;;;;;;;18.09;66.31;100518.34;682901;29;1259;-92
2023/10/03 01:13:58;;;;;;;21.10;11.80;;;;;;;18.02;66.30;100501.66;685844;28;1142;-91
2023/10/03 01:14:19;;;;;;;21.88;12.63;;;;;;;18.03;66.26;100497.25;680106;29;1260;-91
2023/10/03 01:14:42;;;;;;;18.85;12.82;;;;;;;18.07;66.31;100502.50;680390;29;1222;-92
2023/10/03 01:15:13;;;;;;;18.02;12.75;;;;;;;18.03;66.13;100503.44;685588;28;1438;-92
2023/10/03 01:15:35;;;;;;;16.98;11.60;;;;;;;18.08;66.44;100511.31;685512;28;1269;-90
2023/10/03 01:15:56;;;;;;;17.55;11.07;;;;;;;18.10;66.13;100509.53;685033;28;1271;-91
2023/10/03 01:16:27;;;;;;;18.13;10.95;;;;;;;18.06;66.10;100507.78;682851;29;1367;-92
2023/10/03 01:18:21;;;;;;;19.67;12.40;;;;;;;18.12;66.42;100509.53;682835;29;1523;-91
2023/10/03 01:18:43;;;;;;;21.90;12.73;;;;;;;18.12;66.20;100509.53;682773;29;1258;-92
2023/10/03 01:19:25;;;;;;;20.00;12.77;;;;;;;18.16;66.17;100513.91;677719;29;1341;-92
2023/10/03 01:19:47;;;;;;;20.00;12.65;;;;;;;18.13;66.23;100503.34;679662;29;1267;-92
2023/10/03 01:20:24;;;;;;;21.25;12.32;;;;;;;18.09;66.27;100508.63;682966;28;1333;-91
2023/10/03 01:20:48;;;;;;;20.38;11.98;;;;;;;18.09;66.34;100502.50;687923;28;1326;-91
2023/10/03 01:21:11;;;;;;;19.08;12.10;;;;;;;18.13;66.35;100508.63;682859;29;1428;-91
2023/10/03 01:21:32;;;;;;;17.75;11.45;;;;;;;18.14;66.24;100507.75;685561;28;1295;-90
2023/10/03 01:21:52;;;;;;;18.00;11.83;;;;;;;18.16;66.31;100508.63;682972;28;1370;-92
2023/10/03 01:22:14;;;;;;;14.40;10.82;;;;;;;18.14;66.28;100494.53;677824;29;1318;-91
2023/10/03 01:22:39;;;;;;;15.10;11.43;;;;;;;18.15;66.44;100497.22;685518;28;1242;-91
2023/10/03 01:23:06;;;;;;;14.85;11.27;;;;;;;18.15;66.21;100498.97;680126;29;1305;-91
2023/10/03 01:23:34;;;;;;;15.70;11.95;;;;;;;18.14;66.17;100490.16;682530;29;1348;-91
2023/10/03 01:23:55;;;;;;;16.60;11.98;;;;;;;18.11;66.24;100483.97;680437;29;1354;-92
2023/10/03 01:24:26;;;;;;;16.20;11.43;;;;;;;18.23;66.04;100505.06;680260;29;1238;-92
2023/10/03 01:24:50;;;;;;;19.25;11.85;;;;;;;18.22;66.10;100500.66;680368;29;1321;-91
2023/10/03 01:25:12;;;;;;;18.88;12.02;;;;;;;18.16;66.14;100490.16;685221;28;1331;-91
2023/10/03 01:25:34;;;;;;;17.25;12.30;;;;;;;18.17;66.34;100484.84;688961;28;1614;-90
2023/10/03 01:25:55;;;;;;;16.60;11.73;;;;;;;18.23;66.38;100499.78;682850;29;1281;-90
2023/10/03 01:26:17;;;;;;;19.52;12.32;;;;;;;18.23;65.99;100494.50;679889;29;1411;-91
2023/10/03 01:26:38;;;;;;;20.23;12.43;;;;;;;18.23;66.28;100494.50;682759;29;1271;-91
2023/10/03 01:27:01;;;;;;;21.05;13.02;;;;;;;18.25;66.23;100487.41;682562;29;1299;-92
2023/10/03 01:27:22;;;;;;;20.90;12.95;;;;;;;18.20;66.07;100478.69;679750;29;1345;-93
2023/10/03 01:27:44;;;;;;;20.48;13.00;;;;;;;18.26;66.18;100483.03;687385;28;1302;-91
2023/10/03 01:28:06;;;;;;;17.77;12.73;;;;;;;18.29;65.97;100489.16;688013;28;1313;-92
2023/10/03 01:28:27;;;;;;;16.13;12.50;;;;;;;18.24;66.06;100483.03;682949;29;1226;-92
2023/10/03 01:28:48;;;;;;;17.50;12.70;;;;;;;18.28;66.23;100497.97;685661;28;1284;-92
2023/10/03 01:29:11;;;;;;;20.98;13.30;;;;;;;18.29;66.14;100491.81;678036;29;1257;-91
2023/10/03 01:29:31;;;;;;;21.20;13.48;;;;;;;18.31;66.23;100492.66;682300;28;1279;-91
2023/10/03 01:29:52;;;;;;;22.15;13.32;;;;;;;18.30;66.45;100496.19;688354;28;1252;-89
2023/10/03 01:30:13;;;;;;;20.23;12.98;;;;;;;18.35;66.21;100493.50;682669;28;1366;-91
2023/10/03 01:30:36;;;;;;;21.15;12.60;;;;;;;18.40;66.18;100496.09;682913;29;1907;-92
2023/10/03 01:30:59;;;;;;;19.92;12.80;;;;;;;18.31;66.33;100476.81;684913;28;1390;-90
2023/10/03 01:31:20;;;;;;;18.15;12.68;;;;;;;18.45;66.12;100491.66;685614;28;1481;-90
2023/10/03 01:31:41;;;;;;;18.00;13.03;;;;;;;18.39;65.87;100473.22;682976;29;1157;-90
2023/10/03 01:32:03;;;;;;;18.15;13.00;;;;;;;18.48;66.13;100481.06;688209;28;1322;-91
2023/10/03 01:32:30;;;;;;;18.70;13.55;;;;;;;18.47;65.99;100476.66;684816;28;1264;-91
2023/10/03 01:32:55;;;;;;;18.63;13.05;;;;;;;18.49;66.05;100477.53;680379;29;1409;-93
2023/10/03 01:33:16;;;;;;;19.20;12.07;;;;;;;18.56;65.79;100489.78;685316;28;1264;-91
2023/10/03 01:33:37;;;;;;;21.67;11.68;;;;;;;18.53;65.70;100481.91;685643;28;1138;-90
2023/10/03 01:34:01;;;;;;;23.58;12.48;;;;;;;18.53;65.74;100473.09;685584;28;1265;-92
2023/10/03 01:34:21;;;;;;;22.92;12.57;;;;;;;18.53;65.92;100473.97;677517;29;1411;-90
2023/10/03 01:34:42;;;;;;;21.20;12.75;;;;;;;18.56;65.52;100471.28;683021;29;1158;-91
2023/10/03 01:35:09;;;;;;;21.67;12.25;;;;;;;18.63;65.81;100483.56;682726;29;1228;-92
2023/10/03 01:35:30;;;;;;;24.98;12.60;;;;;;;18.61;65.74;100473.88;685621;28;1444;-93
2023/10/03 01:35:51;;;;;;;23.52;12.77;;;;;;;18.63;65.76;100477.41;683086;29;1185;-93
2023/10/03 01:36:13;;;;;;;16.00;12.40;;;;;;;18.61;65.79;100469.47;682785;28;1436;-92
2023/10/03 01:36:33;;;;;;;16.70;12.00;;;;;;;18.57;65.75;100470.38;685377;28;1231;-91
2023/10/03 01:36:54;;;;;;;17.17;11.50;;;;;;;18.59;65.73;100473.91;682768;29;1285;-92
2023/10/03 01:37:15;;;;;;;17.40;11.40;;;;;;;18.58;65.88;100469.53;682679;29;1254;-92
2023/10/03 01:37:38;;;;;;;20.13;11.50;;;;;;;18.60;65.93;100461.56;685664;28;1316;-91
2023/10/03 01:37:59;;;;;;;19.85;12.00;;;;;;;18.64;65.78;100466.78;685413;28;1427;-91
2023/10/03 01:38:20;;;;;;;18.27;12.15;;;;;;;18.64;65.67;100463.31;688138;28;1298;-91
2023/10/03 01:38:42;;;;;;;18.60;11.90;;;;;;;18.72;65.56;100473.78;678934;29;1251;-92
2023/10/03 01:39:03;;;;;;;21.15;12.20;;;;;;;18.74;65.65;100477.25;675008;29;1376;-91
2023/10/03 01:39:24;;;;;;;20.48;12.10;;;;;;;18.73;65.80;100463.19;680080;29;1295;-92
2023/10/03 01:39:45;;;;;;;19.42;11.68;;;;;;;18.75;65.69;100465.84;675229;29;1296;-92
2023/10/03 01:40:13;;;;;;;20.80;11.23;;;;;;;18.74;65.61;100458.75;680336;29;1273;-92
2023/10/03 01:40:36;;;;;;;22.55;11.93;;;;;;;18.69;65.48;100450.03;683038;28;1218;-91
2023/10/03 01:40:58;;;;;;;21.67;12.10;;;;;;;18.75;65.57;100460.53;677875;29;1347;-92
2023/10/03 01:41:19;;;;;;;20.05;12.90;;;;;;;18.75;65.67;100463.19;680464;29;1282;-92
2023/10/03 01:41:42;;;;;;;20.15;12.68;;;;;;;18.81;65.43;100471.03;680280;29;1179;-93
2023/10/03 01:42:03;;;;;;;20.80;12.70;;;;;;;18.76;65.54;100457.00;680333;29;1258;-92
2023/10/03 01:42:25;;;;;;;17.98;11.50;;;;;;;18.80;65.69;100466.63;679280;29;1285;-91
2023/10/03 01:42:47;;;;;;;13.50;10.40;;;;;;;18.84;65.65;100471.00;680275;29;1280;-91
2023/10/03 01:43:08;;;;;;;13.73;10.70;;;;;;;18.83;65.65;100461.34;678979;29;1279;-91
2023/10/03 01:43:29;;;;;;;20.35;11.20;;;;;;;18.81;65.60;100452.53;682997;28;1235;-92
2023/10/03 01:43:50;;;;;;;24.63;12.00;;;;;;;18.83;65.50;100450.75;682928;28;1249;-92
2023/10/03 01:44:11;;;;;;;27.35;12.45;;;;;;;18.88;65.56;100456.84;680034;29;1440;-92
2023/10/03 01:44:31;;;;;;;23.35;12.80;;;;;;;18.84;65.58;100446.31;677738;29;1253;-90
2023/10/03 01:44:53;;;;;;;19.73;11.98;;;;;;;18.90;65.46;100443.63;675134;29;1246;-92
2023/10/03 01:45:22;;;;;;;16.55;11.65;;;;;;;18.85;65.38;100441.03;677133;29;1290;-92
2023/10/03 01:45:43;;;;;;;19.33;12.25;;;;;;;18.84;65.43;100439.28;676440;29;1455;-91
2023/10/03 01:46:04;;;;;;;24.05;13.40;;;;;;;18.84;65.48;100436.66;677251;29;1199;-92
2023/10/03 01:46:25;;;;;;;22.40;13.00;;;;;;;18.85;65.46;100427.81;680143;29;1236;-92
2023/10/03 01:46:46;;;;;;;20.00;12.57;;;;;;;18.83;65.15;100426.97;679762;29;1110;-93
2023/10/03 01:47:07;;;;;;;18.20;11.82;;;;;;;18.87;65.49;100428.66;678075;29;1210;-93
2023/10/03 01:47:29;;;;;;;18.58;11.30;;;;;;;18.86;65.33;100421.63;685634;28;1293;-92
2023/10/03 01:47:51;;;;;;;20.10;11.98;;;;;;;18.90;65.37;100427.75;688126;28;1251;-91
2023/10/03 01:48:12;;;;;;;20.10;12.60;;;;;;;18.85;65.31;100422.53;680114;29;1277;-93
2023/10/03 01:48:34;;;;;;;18.63;12.70;;;;;;;18.87;65.50;100418.09;682063;28;1281;-93
2023/10/03 01:48:57;;;;;;;17.42;12.30;;;;;;;18.88;65.65;100422.47;688436;28;1217;-91